createdAt,value
2018-09-12T00:00:50.074Z,15.06
2018-09-12T00:03:19.884Z,15.09
2018-09-12T00:05:49.584Z,15.03
2018-09-12T00:08:19.198Z,14.97
2018-09-12T00:10:48.869Z,14.93
2018-09-12T00:13:18.556Z,14.90
2018-09-12T00:15:48.258Z,14.85
2018-09-12T00:18:22.895Z,14.84
2018-09-12T00:20:52.982Z,14.84
2018-09-12T00:23:22.762Z,14.84
2018-09-12T00:25:52.427Z,14.83
2018-09-12T00:28:22.135Z,14.84
2018-09-12T00:30:51.774Z,14.83
2018-09-12T00:33:21.486Z,14.83
2018-09-12T00:35:51.171Z,14.80
2018-09-12T00:38:21.092Z,14.73
2018-09-12T00:40:51.067Z,14.66
2018-09-12T00:43:20.746Z,14.55
2018-09-12T00:45:50.399Z,14.43
2018-09-12T00:48:20.048Z,14.39
2018-09-12T00:50:49.675Z,14.26
2018-09-12T00:53:19.288Z,14.15
2018-09-12T00:55:49.075Z,14.16
2018-09-12T00:58:18.778Z,14.15
2018-09-12T01:00:48.393Z,14.23
2018-09-12T01:03:18.083Z,14.26
2018-09-12T01:05:47.759Z,14.27
2018-09-12T01:08:17.417Z,14.29
2018-09-12T01:10:47.107Z,14.28
2018-09-12T01:13:17.227Z,14.24
2018-09-12T01:15:46.930Z,14.22
2018-09-12T01:18:18.485Z,14.21
2018-09-12T01:20:49.806Z,14.20
2018-09-12T01:23:20.065Z,14.17
2018-09-12T01:25:49.695Z,14.15
2018-09-12T01:28:19.434Z,14.15
2018-09-12T01:30:49.157Z,14.13
2018-09-12T01:33:18.835Z,14.12
2018-09-12T01:35:48.495Z,14.08
2018-09-12T01:38:18.170Z,14.08
2018-09-12T01:40:47.850Z,14.02
2018-09-12T01:43:17.486Z,14.02
2018-09-12T01:45:47.112Z,14.07
2018-09-12T01:48:16.852Z,14.09
2018-09-12T01:50:46.499Z,14.09
2018-09-12T01:53:16.166Z,14.00
2018-09-12T01:55:45.775Z,13.91
2018-09-12T01:58:15.483Z,13.93
2018-09-12T02:00:45.179Z,13.90
2018-09-12T02:03:14.860Z,13.84
2018-09-12T02:05:44.502Z,13.85
2018-09-12T02:08:14.103Z,13.81
2018-09-12T02:10:43.785Z,13.79
2018-09-12T02:13:13.400Z,13.73
2018-09-12T02:15:43.090Z,13.73
2018-09-12T02:18:12.706Z,13.74
2018-09-12T02:20:42.339Z,13.71
2018-09-12T02:23:11.970Z,13.68
2018-09-12T02:25:41.723Z,13.69
2018-09-12T02:28:11.461Z,13.71
2018-09-12T02:30:41.295Z,13.73
2018-09-12T02:33:11.066Z,13.71
2018-09-12T02:35:45.942Z,13.72
2018-09-12T02:38:15.671Z,13.71
2018-09-12T02:40:45.412Z,13.70
2018-09-12T02:43:15.075Z,13.69
2018-09-12T02:45:44.811Z,13.64
2018-09-12T02:48:14.378Z,13.64
2018-09-12T02:50:44.067Z,13.66
2018-09-12T02:53:13.739Z,13.64
2018-09-12T02:55:43.461Z,13.57
2018-09-12T02:58:13.160Z,13.55
2018-09-12T03:00:42.870Z,13.51
2018-09-12T03:03:12.595Z,13.48
2018-09-12T03:05:42.430Z,13.37
2018-09-12T03:11:13.562Z,13.38
2018-09-12T03:13:43.242Z,13.34
2018-09-12T03:16:13.010Z,13.32
2018-09-12T03:18:42.764Z,13.29
2018-09-12T03:21:12.544Z,13.13
2018-09-12T03:23:42.147Z,13.03
2018-09-12T03:26:11.952Z,13.08
2018-09-12T03:28:41.571Z,13.12
2018-09-12T03:31:11.187Z,13.19
2018-09-12T03:33:40.900Z,13.23
2018-09-12T03:36:10.550Z,13.27
2018-09-12T03:38:40.274Z,13.35
2018-09-12T03:41:09.966Z,13.36
2018-09-12T03:43:39.700Z,13.33
2018-09-12T03:46:09.313Z,13.32
2018-09-12T03:48:38.986Z,13.26
2018-09-12T03:51:08.655Z,13.21
2018-09-12T03:53:38.322Z,13.18
2018-09-12T03:56:08.007Z,13.14
2018-09-12T03:58:37.670Z,13.10
2018-09-12T04:01:07.531Z,13.10
2018-09-12T04:03:37.154Z,13.09
2018-09-12T04:06:07.059Z,13.09
2018-09-12T04:08:36.746Z,13.05
2018-09-12T04:11:06.499Z,13.09
2018-09-12T04:13:36.121Z,13.07
2018-09-12T04:16:05.850Z,13.08
2018-09-12T04:18:35.563Z,13.10
2018-09-12T04:21:05.226Z,13.12
2018-09-12T04:23:34.977Z,13.14
2018-09-12T04:26:04.667Z,13.08
2018-09-12T04:28:34.399Z,13.07
2018-09-12T04:31:04.087Z,12.98
2018-09-12T04:33:33.750Z,12.93
2018-09-12T04:36:03.467Z,12.86
2018-09-12T04:38:33.134Z,12.84
2018-09-12T04:41:02.863Z,12.90
2018-09-12T04:43:32.598Z,12.92
2018-09-12T04:46:02.329Z,12.79
2018-09-12T04:48:32.038Z,12.66
2018-09-12T04:51:01.732Z,12.61
2018-09-12T04:53:31.382Z,12.60
2018-09-12T04:56:01.092Z,12.62
2018-09-12T04:58:30.724Z,12.71
2018-09-12T05:01:00.366Z,12.78
2018-09-12T05:03:29.983Z,12.86
2018-09-12T05:05:59.603Z,12.78
2018-09-12T05:08:29.355Z,12.84
2018-09-12T05:10:59.011Z,12.93
2018-09-12T05:13:28.622Z,12.93
2018-09-12T05:15:58.498Z,12.90
2018-09-12T05:18:28.187Z,12.84
2018-09-12T05:21:01.509Z,12.82
2018-09-12T05:23:31.151Z,12.85
2018-09-12T05:26:01.149Z,12.91
2018-09-12T05:28:30.963Z,12.98
2018-09-12T05:31:00.978Z,13.04
2018-09-12T05:33:30.751Z,13.06
2018-09-12T05:36:00.470Z,13.19
2018-09-12T05:38:30.190Z,13.27
2018-09-12T05:40:59.902Z,13.35
2018-09-12T05:43:29.543Z,13.52
2018-09-12T05:46:00.446Z,13.69
2018-09-12T05:48:30.111Z,13.89
2018-09-12T05:50:59.714Z,14.03
2018-09-12T05:53:29.347Z,14.15
2018-09-12T05:55:59.018Z,14.27
2018-09-12T05:58:28.738Z,14.42
2018-09-12T06:00:58.390Z,14.58
2018-09-12T06:03:28.033Z,14.70
2018-09-12T06:05:57.722Z,14.80
2018-09-12T06:08:27.434Z,14.94
2018-09-12T06:10:57.127Z,15.10
2018-09-12T06:13:26.871Z,15.26
2018-09-12T06:15:56.595Z,15.43
2018-09-12T06:18:26.296Z,15.62
2018-09-12T06:20:55.970Z,15.78
2018-09-12T06:23:25.649Z,15.98
2018-09-12T06:25:55.326Z,16.14
2018-09-12T06:28:25.004Z,16.25
2018-09-12T06:30:54.752Z,16.38
2018-09-12T06:33:24.636Z,16.65
2018-09-12T06:35:55.382Z,16.91
2018-09-12T06:38:44.222Z,17.48
2018-09-12T06:41:13.880Z,18.14
2018-09-12T06:43:43.526Z,18.92
2018-09-12T06:46:13.235Z,19.91
2018-09-12T06:48:43.070Z,20.92
2018-09-12T06:51:12.702Z,21.87
2018-09-12T06:53:42.476Z,22.93
2018-09-12T06:56:12.426Z,23.28
2018-09-12T06:58:41.998Z,24.49
2018-09-12T07:01:11.792Z,25.19
2018-09-12T07:03:41.366Z,25.75
2018-09-12T07:06:10.982Z,26.42
2018-09-12T07:08:40.762Z,27.18
2018-09-12T07:11:10.438Z,26.62
2018-09-12T07:13:40.123Z,27.41
2018-09-12T07:16:09.824Z,27.98
2018-09-12T07:18:39.483Z,28.37
2018-09-12T07:21:09.129Z,28.52
2018-09-12T07:23:38.866Z,28.72
2018-09-12T07:26:08.908Z,28.89
2018-09-12T07:28:38.702Z,29.05
2018-09-12T07:31:08.387Z,29.44
2018-09-12T07:33:38.134Z,30.16
2018-09-12T07:36:07.885Z,30.15
2018-09-12T07:38:37.603Z,30.32
2018-09-12T07:41:11.550Z,29.71
2018-09-12T07:43:41.484Z,28.09
2018-09-12T07:46:11.202Z,28.86
2018-09-12T07:48:40.987Z,29.25
2018-09-12T07:51:10.590Z,29.36
2018-09-12T07:53:40.283Z,29.25
2018-09-12T07:56:10.306Z,30.34
2018-09-12T07:58:39.842Z,29.67
2018-09-12T08:01:09.592Z,30.10
2018-09-12T08:03:39.234Z,29.26
2018-09-12T08:06:09.036Z,30.39
2018-09-12T08:08:38.745Z,30.55
2018-09-12T08:11:08.426Z,30.30
2018-09-12T08:13:38.055Z,30.66
2018-09-12T08:16:08.046Z,30.94
2018-09-12T08:18:38.519Z,31.19
2018-09-12T08:21:08.585Z,30.29
2018-09-12T08:23:38.450Z,31.47
2018-09-12T08:26:08.109Z,31.00
2018-09-12T08:28:37.785Z,32.12
2018-09-12T08:31:07.588Z,31.33
2018-09-12T08:33:37.268Z,31.51
2018-09-12T08:36:07.019Z,31.09
2018-09-12T08:38:36.738Z,32.56
2018-09-12T08:41:06.480Z,32.39
2018-09-12T08:43:36.094Z,33.30
2018-09-12T08:46:05.786Z,34.04
2018-09-12T08:48:35.547Z,34.17
2018-09-12T08:51:05.234Z,32.63
2018-09-12T08:53:34.950Z,31.45
2018-09-12T08:56:04.676Z,32.81
2018-09-12T08:58:34.311Z,33.35
2018-09-12T09:01:04.088Z,31.81
2018-09-12T09:03:33.812Z,32.52
2018-09-12T09:06:03.535Z,31.61
2018-09-12T09:08:33.311Z,30.33
2018-09-12T09:11:03.010Z,30.75
2018-09-12T09:13:32.702Z,31.23
2018-09-12T09:16:02.434Z,30.84
2018-09-12T09:18:32.118Z,32.24
2018-09-12T09:21:01.830Z,31.33
2018-09-12T09:23:31.495Z,31.31
2018-09-12T09:26:01.155Z,32.35
2018-09-12T09:28:30.802Z,31.93
2018-09-12T09:31:00.475Z,30.87
2018-09-12T09:33:30.195Z,29.95
2018-09-12T09:35:59.871Z,31.12
2018-09-12T09:38:29.630Z,33.67
2018-09-12T09:40:59.323Z,33.16
2018-09-12T09:43:29.048Z,32.15
2018-09-12T09:45:58.653Z,33.30
2018-09-12T09:48:28.498Z,32.98
2018-09-12T09:50:58.176Z,30.66
2018-09-12T09:53:27.840Z,30.41
2018-09-12T09:55:59.671Z,31.15
2018-09-12T09:58:29.310Z,32.06
2018-09-12T10:01:04.137Z,32.29
2018-09-12T10:03:38.944Z,29.83
2018-09-12T10:06:13.774Z,31.33
2018-09-12T10:08:48.649Z,33.01
2018-09-12T10:11:18.446Z,33.42
2018-09-12T10:13:48.112Z,31.43
2018-09-12T10:16:17.996Z,32.56
2018-09-12T10:18:47.735Z,32.87
2018-09-12T10:21:17.650Z,32.04
2018-09-12T10:23:47.361Z,34.59
2018-09-12T10:26:17.168Z,34.95
2018-09-12T10:28:46.806Z,34.19
2018-09-12T10:31:16.470Z,35.78
2018-09-12T10:33:46.139Z,34.28
2018-09-12T10:36:15.802Z,35.18
2018-09-12T10:38:45.509Z,34.73
2018-09-12T10:41:15.254Z,34.84
2018-09-12T10:43:44.910Z,34.54
2018-09-12T10:46:14.589Z,35.69
2018-09-12T10:48:44.367Z,35.43
2018-09-12T10:51:14.115Z,37.04
2018-09-12T10:53:43.795Z,37.69
2018-09-12T10:56:13.493Z,37.57
2018-09-12T10:58:43.118Z,37.41
2018-09-12T11:01:12.760Z,36.26
2018-09-12T11:03:42.518Z,37.78
2018-09-12T11:06:12.282Z,37.98
2018-09-12T11:08:41.934Z,36.78
2018-09-12T11:11:11.735Z,37.98
2018-09-12T11:13:41.455Z,39.25
2018-09-12T11:16:16.969Z,39.61
2018-09-12T11:18:46.627Z,37.55
2018-09-12T11:21:16.306Z,37.13
2018-09-12T11:23:45.976Z,36.48
2018-09-12T11:26:22.997Z,37.09
2018-09-12T11:28:52.982Z,38.94
2018-09-12T11:31:22.681Z,38.78
2018-09-12T11:33:52.326Z,39.34
2018-09-12T11:39:40.525Z,38.94
2018-09-12T11:42:10.256Z,38.20
2018-09-12T11:44:39.875Z,40.22
2018-09-12T11:47:09.569Z,39.32
2018-09-12T11:49:39.234Z,39.44
2018-09-12T11:52:08.859Z,38.92
2018-09-12T11:54:38.535Z,37.60
2018-09-12T11:57:08.478Z,38.84
2018-09-12T11:59:38.078Z,40.61
2018-09-12T12:02:08.065Z,42.51
2018-09-12T12:04:41.490Z,41.59
2018-09-12T12:07:23.168Z,38.50
2018-09-12T12:09:53.763Z,37.49
2018-09-12T12:12:23.366Z,36.48
2018-09-12T12:14:58.680Z,36.98
2018-09-12T12:17:38.795Z,38.63
2018-09-12T12:20:10.519Z,41.17
2018-09-12T12:22:40.150Z,41.35
2018-09-12T12:25:09.899Z,42.98
2018-09-12T12:27:39.796Z,42.98
2018-09-12T12:30:09.711Z,43.82
2018-09-12T12:32:39.372Z,42.60
2018-09-12T12:35:09.166Z,40.81
2018-09-12T12:37:38.951Z,41.33
2018-09-12T12:40:08.619Z,43.81
2018-09-12T12:42:38.361Z,42.28
2018-09-12T12:45:08.049Z,42.95
2018-09-12T12:47:37.670Z,43.33
2018-09-12T12:50:23.778Z,43.91
2018-09-12T12:52:53.539Z,44.04
2018-09-12T12:55:23.294Z,45.16
2018-09-12T12:57:54.718Z,44.36
2018-09-12T13:00:25.192Z,43.80
2018-09-12T13:02:54.878Z,41.84
2018-09-12T13:05:24.560Z,44.17
2018-09-12T13:07:54.270Z,42.66
2018-09-12T13:10:24.049Z,40.83
2018-09-12T13:12:55.391Z,43.00
2018-09-12T13:15:25.377Z,41.69
2018-09-12T13:17:55.378Z,43.54
2018-09-12T13:20:25.168Z,41.98
2018-09-12T13:22:55.106Z,43.23
2018-09-12T13:25:27.066Z,41.78
2018-09-12T13:27:57.001Z,42.47
2018-09-12T13:30:26.657Z,42.09
2018-09-12T13:32:56.675Z,42.55
2018-09-12T13:35:26.679Z,42.77
2018-09-12T13:37:56.422Z,43.55
2018-09-12T13:40:26.826Z,44.43
2018-09-12T13:42:56.631Z,42.12
2018-09-12T13:45:26.423Z,43.33
2018-09-12T13:47:56.434Z,42.30
2018-09-12T13:50:26.302Z,43.06
2018-09-12T13:52:56.091Z,44.69
2018-09-12T13:55:26.130Z,45.49
2018-09-12T13:57:55.961Z,45.20
2018-09-12T14:00:32.682Z,41.70
2018-09-12T14:03:03.750Z,42.82
2018-09-12T14:05:33.731Z,44.31
2018-09-12T14:08:03.580Z,44.67
2018-09-12T14:10:46.430Z,43.49
2018-09-12T14:13:16.142Z,44.46
2018-09-12T14:15:45.813Z,45.77
2018-09-12T14:18:31.634Z,45.30
2018-09-12T14:21:01.278Z,46.09
2018-09-12T14:23:31.004Z,44.49
2018-09-12T14:26:00.643Z,45.22
2018-09-12T14:28:30.797Z,45.77
2018-09-12T14:31:04.003Z,45.54
2018-09-12T14:33:33.644Z,45.83
2018-09-12T14:36:03.425Z,45.65
2018-09-12T14:38:33.796Z,46.12
2018-09-12T14:41:03.498Z,43.45
2018-09-12T14:43:33.390Z,43.43
2018-09-12T14:46:03.374Z,43.31
2018-09-12T14:48:33.304Z,44.93
2018-09-12T14:51:03.200Z,44.88
2018-09-12T14:53:35.057Z,44.25
2018-09-12T14:56:05.231Z,45.20
2018-09-12T14:58:35.275Z,45.83
2018-09-12T15:01:05.198Z,45.86
2018-09-12T15:03:34.975Z,45.65
2018-09-12T15:06:04.704Z,45.56
2018-09-12T15:08:34.518Z,46.03
2018-09-12T15:14:12.945Z,44.89
2018-09-12T15:16:43.153Z,44.46
2018-09-12T15:19:13.748Z,44.05
2018-09-12T15:21:43.494Z,44.91
2018-09-12T15:24:13.241Z,45.38
2018-09-12T15:26:42.875Z,45.12
2018-09-12T15:29:12.653Z,45.24
2018-09-12T15:31:42.365Z,46.06
2018-09-12T15:34:12.044Z,45.67
2018-09-12T15:36:42.847Z,45.44
2018-09-12T15:39:13.052Z,45.45
2018-09-12T15:41:42.947Z,45.06
2018-09-12T15:44:12.618Z,43.97
2018-09-12T15:46:42.275Z,43.74
2018-09-12T15:49:11.909Z,44.12
2018-09-12T15:51:41.670Z,44.69
2018-09-12T15:54:11.321Z,44.63
2018-09-12T15:56:41.031Z,43.23
2018-09-12T15:59:10.787Z,42.56
2018-09-12T16:05:03.392Z,41.24
2018-09-12T16:07:33.091Z,41.04
2018-09-12T16:10:02.746Z,41.18
2018-09-12T16:12:32.439Z,41.37
2018-09-12T16:15:02.292Z,41.52
2018-09-12T16:17:31.982Z,41.17
2018-09-12T16:20:01.643Z,40.66
2018-09-12T16:22:31.343Z,40.56
2018-09-12T16:25:03.070Z,40.26
2018-09-12T16:27:32.790Z,40.52
2018-09-12T16:30:02.414Z,40.41
2018-09-12T16:32:32.109Z,40.06
2018-09-12T16:35:01.746Z,38.92
2018-09-12T16:37:31.566Z,37.67
2018-09-12T16:40:01.546Z,35.78
2018-09-12T16:42:31.266Z,35.06
2018-09-12T16:45:02.148Z,35.33
2018-09-12T16:47:31.810Z,34.51
2018-09-12T16:50:01.777Z,33.83
2018-09-12T16:52:31.494Z,32.65
2018-09-12T16:55:01.759Z,31.34
2018-09-12T16:57:45.281Z,30.49
2018-09-12T17:00:15.162Z,29.83
2018-09-12T17:02:44.925Z,29.39
2018-09-12T17:05:14.702Z,28.94
2018-09-12T17:07:44.403Z,28.31
2018-09-12T17:10:14.092Z,28.05
2018-09-12T17:12:43.766Z,27.81
2018-09-12T17:15:13.534Z,27.56
2018-09-12T17:17:43.529Z,27.21
2018-09-12T17:20:13.209Z,26.84
2018-09-12T17:22:42.868Z,26.57
2018-09-12T17:25:12.815Z,26.32
2018-09-12T17:27:42.806Z,25.97
2018-09-12T17:30:13.560Z,25.67
2018-09-12T17:32:43.270Z,25.41
2018-09-12T17:35:13.458Z,25.22
2018-09-12T17:37:43.293Z,25.07
2018-09-12T17:40:12.982Z,24.91
2018-09-12T17:42:42.671Z,24.69
2018-09-12T17:45:12.601Z,24.42
2018-09-12T17:47:42.322Z,24.21
2018-09-12T17:50:12.105Z,24.04
2018-09-12T17:52:41.763Z,23.86
2018-09-12T17:55:11.482Z,23.69
2018-09-12T17:57:41.132Z,23.55
2018-09-12T18:00:10.911Z,23.44
2018-09-12T18:02:40.590Z,23.34
2018-09-12T18:05:10.445Z,23.32
2018-09-12T18:07:40.251Z,23.24
2018-09-12T18:10:16.147Z,23.17
2018-09-12T18:12:45.824Z,23.05
2018-09-12T18:15:15.506Z,22.92
2018-09-12T18:17:45.195Z,22.82
2018-09-12T18:20:15.007Z,22.83
2018-09-12T18:22:44.646Z,22.94
2018-09-12T18:25:43.374Z,22.86
2018-09-12T18:28:13.043Z,22.80
2018-09-12T18:30:43.478Z,22.76
2018-09-12T18:33:13.166Z,22.70
2018-09-12T18:35:42.874Z,22.66
2018-09-12T18:38:12.684Z,22.58
2018-09-12T18:40:42.341Z,22.51
2018-09-12T18:43:12.135Z,22.48
2018-09-12T18:45:41.735Z,22.48
2018-09-12T18:48:11.411Z,22.48
2018-09-12T18:50:41.131Z,22.60
2018-09-12T18:53:10.780Z,22.64
2018-09-12T18:55:40.571Z,22.54
2018-09-12T18:58:10.305Z,22.34
2018-09-12T19:00:39.959Z,22.22
2018-09-12T19:03:09.619Z,22.13
2018-09-12T19:05:39.327Z,22.03
2018-09-12T19:08:09.091Z,22.01
2018-09-12T19:10:42.830Z,22.02
2018-09-12T19:13:12.535Z,22.03
2018-09-12T19:15:52.587Z,22.09
2018-09-12T19:18:22.312Z,22.15
2018-09-12T19:20:52.094Z,21.96
2018-09-12T19:23:21.827Z,21.76
2018-09-12T19:25:51.574Z,21.60
2018-09-12T19:28:21.251Z,21.47
2018-09-12T19:30:51.049Z,21.37
2018-09-12T19:33:20.706Z,21.32
2018-09-12T19:35:50.550Z,21.24
2018-09-12T19:38:25.330Z,21.12
2018-09-12T19:40:55.060Z,21.06
2018-09-12T19:43:24.853Z,21.04
2018-09-12T19:45:54.725Z,20.95
2018-09-12T19:48:24.540Z,20.94
2018-09-12T19:51:15.134Z,20.84
2018-09-12T19:53:45.780Z,20.69
2018-09-12T19:56:23.103Z,20.64
2018-09-12T19:58:53.279Z,20.64
2018-09-12T20:01:23.314Z,20.62
2018-09-12T20:03:53.557Z,20.61
2018-09-12T20:06:23.310Z,20.65
2018-09-12T20:08:53.291Z,20.73
2018-09-12T20:11:23.349Z,20.72
2018-09-12T20:13:53.074Z,20.67
2018-09-12T20:16:22.789Z,20.72
2018-09-12T20:18:56.338Z,20.69
2018-09-12T20:21:38.751Z,20.72
2018-09-12T20:24:09.510Z,20.71
2018-09-12T20:26:55.065Z,20.67
2018-09-12T20:29:27.272Z,20.59
2018-09-12T20:32:07.631Z,20.46
2018-09-12T20:34:37.612Z,20.42
2018-09-12T20:37:07.244Z,20.49
2018-09-12T20:39:37.069Z,20.55
2018-09-12T20:42:12.554Z,20.58
2018-09-12T20:44:42.331Z,20.68
2018-09-12T20:47:15.729Z,20.69
2018-09-12T20:49:45.442Z,20.72
2018-09-12T20:52:26.934Z,20.67
2018-09-12T20:54:56.695Z,20.60
2018-09-12T20:57:26.473Z,20.57
2018-09-12T20:59:56.299Z,20.59
2018-09-12T21:02:35.849Z,20.61
2018-09-12T21:05:05.594Z,20.63
2018-09-12T21:07:35.327Z,20.62
2018-09-12T21:10:05.414Z,20.60
2018-09-12T21:12:35.029Z,20.60
2018-09-12T21:15:04.723Z,20.61
2018-09-12T21:17:34.416Z,20.82
2018-09-12T21:20:04.054Z,20.88
2018-09-12T21:22:33.732Z,20.88
2018-09-12T21:25:03.626Z,21.06
2018-09-12T21:27:33.359Z,21.26
2018-09-12T21:30:03.066Z,21.44
2018-09-12T21:32:33.051Z,21.51
2018-09-12T21:35:02.814Z,21.46
2018-09-12T21:37:40.003Z,21.45
2018-09-12T21:40:09.803Z,21.44
2018-09-12T21:42:39.438Z,21.36
2018-09-12T21:45:09.170Z,21.35
2018-09-12T21:47:51.209Z,21.34
2018-09-12T21:50:20.962Z,21.29
2018-09-12T21:52:50.647Z,21.15
2018-09-12T21:55:25.899Z,21.12
2018-09-12T21:57:55.618Z,21.12
2018-09-12T22:00:25.445Z,21.10
2018-09-12T22:02:56.244Z,21.06
2018-09-12T22:05:25.863Z,21.08
2018-09-12T22:07:55.540Z,21.07
2018-09-12T22:10:29.462Z,21.05
2018-09-12T22:12:59.118Z,20.97
2018-09-12T22:15:28.851Z,20.92
2018-09-12T22:17:58.669Z,20.85
2018-09-12T22:20:28.321Z,20.76
2018-09-12T22:22:57.910Z,20.67
2018-09-12T22:25:27.627Z,20.66
2018-09-12T22:27:57.245Z,20.69
2018-09-12T22:30:55.479Z,20.73
2018-09-12T22:33:25.324Z,20.74
2018-09-12T22:35:55.522Z,20.77
2018-09-12T22:38:25.152Z,20.72
2018-09-12T22:40:54.896Z,20.67
2018-09-12T22:43:42.586Z,20.63
2018-09-12T22:49:20.486Z,20.45
2018-09-12T22:51:50.327Z,20.40
2018-09-12T22:54:20.025Z,20.35
2018-09-12T22:56:49.694Z,20.40
2018-09-12T22:59:19.460Z,20.41
2018-09-12T23:01:49.218Z,20.44
2018-09-12T23:04:18.911Z,20.53
2018-09-12T23:06:48.786Z,20.59
2018-09-12T23:09:18.432Z,20.60
2018-09-12T23:11:48.086Z,20.73
2018-09-12T23:14:17.743Z,21.03
2018-09-12T23:16:47.402Z,21.17
2018-09-12T23:19:17.054Z,21.23
2018-09-12T23:21:46.630Z,21.32
2018-09-12T23:24:16.319Z,21.44
2018-09-12T23:26:46.223Z,21.61
2018-09-12T23:29:15.961Z,21.67
2018-09-12T23:31:45.754Z,21.88
2018-09-12T23:34:15.710Z,21.85
2018-09-12T23:36:45.382Z,21.62
2018-09-12T23:39:15.321Z,21.23
2018-09-12T23:41:45.087Z,20.99
2018-09-12T23:44:15.770Z,20.76
2018-09-12T23:46:45.476Z,20.44
2018-09-12T23:49:15.343Z,20.22
2018-09-12T23:51:44.974Z,19.98
2018-09-12T23:54:14.738Z,19.83
2018-09-12T23:56:44.426Z,19.70
2018-09-12T23:59:16.207Z,19.57
